سنندج, ایران

12:16 AM IRDT on اوت 30, 2016 (GMT +0430)
Sanandaj | | Change Station

Elev 4521 ft 35.25 °N, 47.01 °E | Updated 56 minutes ago

Partly Cloudy
ابرهاى پراكنده
81 °F
Feels Like 81 °F
N
2
باد متغير باد from جنوب

امروز
High -- | Low -- °F
--% Chance of Precip.
دیروز
High -- | Low -- °F
Precip. -- در
فشار 30.06 در
ديد 6.2 مايل، ميل (در برابر كيلومتر
ابری Few 4000 ft
قطره شبنم 34 °F
رطوبت 18%
بارش باران 0.00 در
برف عمیق Not available.
6:53 AM 7:51 PM
Waning Crescent, 7% visible
METAR OICS 291850Z 17002KT 9999 FEW040 27/01 Q1018
فشار 30.06 در
ديد 6.2 مايل، ميل (در برابر كيلومتر
ابری Few 4000 ft
قطره شبنم 34 °F
رطوبت 18%
بارش باران 0.00 در
برف عمیق Not available.
6:53 AM 7:51 PM
Waning Crescent, 7% visible
METAR OICS 291850Z 17002KT 9999 FEW040 27/01 Q1018

10-Day Weather Forecast

No radar image for this location.
×

Almanac

ستاره شناسی

Aug. 30, 2016 Rise Set
وقت حقیقی
تاریک و روشن اجتماعی
تاریک روشن دریایی
شفق و فلق نجومی
ماه
میزان روشنایی روز
طول روز
Tomorrow will be .
, % of the Moon is Illuminated

Today's Extremes

Country Highs Country Lows

Community

WunderPhotos

Upload Photos

1,935,642 photos uploaded!

WunderBlog® & News

Nearby

تمیزی هوا

  تمیزی هوا AQ Index آلاینده
Not available.

عمق برف

Station Depth Elevation

Earthquake Activity

شهر Distance Mag. Time & Date
Minimum magnitude displayed is 2.5.

Coastal Water Temperatures

منطقه درجه حرارت

Stations

Nearby Weather Stations

Station Location دما باد سرد قطره شبنم رطوبت باد Precip. Elev ارتقا دادن Type